Time;durP1;ratioP1;P1;durP2;ratioP2;P2;SDS_P1;SDS_P2;PMS_P1;PMS_P2;Temp;Humidity;BMP_temperature;BMP_pressure;BME280_temperature;BME280_humidity;BME280_pressure;Samples;Min_cycle;Max_cycle;Signal;HPM_P1;HPM_P2
2022/09/28 00:01:45;;;;;;;7.25;4.00;;;8.70;99.90;;;7.66;100.00;95689.34;5050095;28;20408;-72
2022/09/28 00:04:11;;;;;;;9.85;4.00;;;8.70;99.90;;;7.65;100.00;95691.19;5049741;28;20470;-73
2022/09/28 00:06:38;;;;;;;9.65;3.90;;;8.70;99.90;;;7.67;100.00;95677.72;5050032;28;20417;-72
2022/09/28 00:09:05;;;;;;;10.07;4.10;;;8.70;99.90;;;7.70;100.00;95677.97;5048915;28;20413;-73
2022/09/28 00:11:32;;;;;;;9.73;4.30;;;8.70;99.90;;;7.70;100.00;95677.97;5050110;28;20416;-72
2022/09/28 00:14:01;;;;;;;8.23;3.60;;;8.80;99.90;;;7.72;100.00;95673.22;5049657;28;20940;-72
2022/09/28 00:16:30;;;;;;;8.73;3.90;;;8.80;99.90;;;7.75;100.00;95667.38;5050040;28;20451;-72
2022/09/28 00:18:56;;;;;;;9.48;4.32;;;8.80;99.90;;;7.74;100.00;95657.91;5050037;28;20432;-72
2022/09/28 00:21:24;;;;;;;7.90;3.97;;;8.80;99.90;;;7.72;100.00;95657.44;5049796;28;20409;-72
2022/09/28 00:26:40;;;;;;;8.35;4.20;;;8.80;99.90;;;7.71;100.00;95647.16;5049961;28;20440;-72
2022/09/28 00:29:14;;;;;;;9.67;4.10;;;8.80;99.90;;;7.72;100.00;95633.72;5049972;28;20771;-72
2022/09/28 00:31:40;;;;;;;15.70;4.20;;;8.80;99.90;;;7.71;100.00;95634.00;5049758;28;20421;-72
2022/09/28 00:34:06;;;;;;;10.57;4.20;;;8.80;99.90;;;7.70;100.00;95625.31;5052509;28;20740;-72
2022/09/28 00:36:33;;;;;;;11.80;4.20;;;8.70;99.90;;;7.70;100.00;95619.25;5053772;28;20889;-72
2022/09/28 00:39:04;;;;;;;9.00;3.95;;;8.70;99.90;;;7.67;100.00;95609.25;5053669;28;20401;-72
2022/09/28 00:41:30;;;;;;;6.20;3.50;;;8.80;99.90;;;7.72;100.00;95604.75;5053603;28;20759;-72
2022/09/28 00:44:36;;;;;;;10.60;3.80;;;8.80;99.90;;;7.72;100.00;95601.34;5053100;28;20397;-72
2022/09/28 00:47:14;;;;;;;7.27;3.60;;;8.80;99.90;;;7.73;100.00;95597.63;5053495;28;20491;-73
2022/09/28 00:49:47;;;;;;;7.90;3.45;;;8.80;99.90;;;7.77;100.00;95593.38;5053479;28;20416;-73
2022/09/28 00:52:19;;;;;;;8.45;3.80;;;8.80;99.90;;;7.80;100.00;95586.78;5053509;28;20397;-73
2022/09/28 00:54:46;;;;;;;9.95;4.10;;;8.90;99.90;;;7.83;100.00;95570.41;5052980;28;20875;-73
2022/09/28 00:57:13;;;;;;;10.63;3.78;;;8.90;99.90;;;7.82;100.00;95566.22;5053394;28;20746;-72
2022/09/28 00:59:41;;;;;;;7.87;3.70;;;8.90;99.90;;;7.84;100.00;95564.09;5053265;28;20409;-72
2022/09/28 01:02:09;;;;;;;7.78;3.38;;;8.90;99.90;;;7.85;100.00;95558.53;5053283;28;20394;-72
2022/09/28 01:04:37;;;;;;;8.68;3.90;;;8.90;99.90;;;7.83;100.00;95563.28;5052755;28;20405;-72
2022/09/28 01:07:03;;;;;;;6.55;3.55;;;8.90;99.90;;;7.81;100.00;95549.63;5053187;28;20441;-72
2022/09/28 01:09:30;;;;;;;8.68;3.67;;;8.90;99.90;;;7.83;100.00;95542.22;5053199;28;20402;-72
2022/09/28 01:11:56;;;;;;;8.68;3.30;;;8.90;99.90;;;7.83;100.00;95530.91;5052988;28;20455;-72
2022/09/28 01:14:24;;;;;;;8.20;3.70;;;8.90;99.90;;;7.84;100.00;95532.47;5052194;28;20507;-72
2022/09/28 01:17:04;;;;;;;12.27;3.53;;;8.90;99.90;;;7.85;100.00;95528.78;5043926;28;20498;-73
2022/09/28 01:20:17;;;;;;;7.03;3.35;;;8.90;99.90;;;7.86;100.00;95525.88;5033061;28;20410;-72
2022/09/28 01:23:29;;;;;;;10.55;3.20;;;8.90;99.90;;;7.91;100.00;95532.94;5032340;28;20432;-72
2022/09/28 01:26:17;;;;;;;10.07;3.50;;;8.90;99.90;;;7.93;100.00;95518.41;5032930;28;20761;-72
2022/09/28 01:28:45;;;;;;;5.82;3.10;;;9.00;99.90;;;7.94;100.00;95512.09;5032766;28;20458;-72
2022/09/28 01:31:14;;;;;;;13.23;3.50;;;9.00;99.90;;;7.97;100.00;95506.25;5032861;28;20403;-72
2022/09/28 01:33:45;;;;;;;10.45;3.08;;;9.00;99.90;;;7.96;100.00;95499.44;5032313;28;20487;-72
2022/09/28 01:36:18;;;;;;;9.18;3.35;;;9.00;99.90;;;7.97;100.00;95500.97;5032871;28;20877;-72
2022/09/28 01:38:48;;;;;;;8.98;3.20;;;9.00;99.90;;;7.98;100.00;95492.00;5032658;28;20403;-72
2022/09/28 01:41:16;;;;;;;11.87;3.50;;;9.00;99.90;;;8.00;100.00;95491.75;5032536;28;20761;-72
2022/09/28 01:43:49;;;;;;;10.10;3.10;;;9.00;99.90;;;7.98;100.00;95491.22;5031799;28;20396;-72
2022/09/28 01:46:21;;;;;;;7.50;3.08;;;9.00;99.90;;;7.99;100.00;95479.63;5032018;28;20781;-72
2022/09/28 01:48:55;;;;;;;12.10;3.50;;;9.00;99.90;;;7.97;100.00;95472.00;5032564;28;20455;-71
2022/09/28 01:51:37;;;;;;;16.35;3.90;;;9.10;99.90;;;8.02;100.00;95479.06;5032432;28;20399;-71
2022/09/28 01:54:11;;;;;;;11.38;3.40;;;9.00;99.90;;;8.03;100.00;95470.13;5031905;28;20395;-72
2022/09/28 01:56:43;;;;;;;10.45;3.22;;;9.10;99.90;;;8.11;100.00;95470.28;5032384;28;20407;-72
2022/09/28 01:59:14;;;;;;;10.35;3.25;;;9.10;99.90;;;8.18;100.00;95459.38;5032338;28;20422;-71
2022/09/28 02:01:44;;;;;;;16.30;3.70;;;9.10;99.90;;;8.14;100.00;95463.63;5032178;28;20427;-73
2022/09/28 02:04:14;;;;;;;12.13;3.40;;;9.20;99.90;;;8.16;100.00;95457.03;5031833;28;20834;-71
2022/09/28 02:06:51;;;;;;;13.38;3.50;;;9.20;99.90;;;8.19;100.00;95452.28;5030807;28;20423;-71
2022/09/28 02:09:24;;;;;;;8.50;3.50;;;9.20;99.90;;;8.16;100.00;95441.22;5032157;28;20399;-73
2022/09/28 02:11:59;;;;;;;16.00;3.95;;;9.20;99.90;;;8.22;100.00;95441.16;5032011;28;20442;-70
2022/09/28 02:14:28;;;;;;;11.60;3.70;;;9.20;99.90;;;8.19;100.00;95433.81;5031589;28;20395;-72
2022/09/28 02:16:56;;;;;;;15.07;4.07;;;9.20;99.90;;;8.20;100.00;95433.50;5032051;28;20992;-71
2022/09/28 02:19:26;;;;;;;13.38;4.10;;;9.20;99.90;;;8.14;100.00;95440.72;5031885;28;20409;-73
2022/09/28 02:21:58;;;;;;;13.32;3.75;;;9.20;99.90;;;8.15;100.00;95439.66;5031669;28;20414;-73
2022/09/28 02:24:34;;;;;;;17.98;4.20;;;9.20;99.90;;;8.13;100.00;95435.72;5031288;28;20463;-73
2022/09/28 02:27:11;;;;;;;15.02;4.22;;;9.20;99.90;;;8.14;100.00;95426.75;5031682;28;20415;-73
2022/09/28 02:29:37;;;;;;;17.35;3.72;;;9.10;99.90;;;8.28;100.00;95430.25;5031847;28;20697;-72
2022/09/28 02:32:03;;;;;;;16.50;4.03;;;9.20;99.90;;;8.20;100.00;95422.19;5031555;28;20872;-73
2022/09/28 02:34:29;;;;;;;11.55;3.78;;;9.20;99.90;;;8.18;100.00;95419.84;5031169;28;20399;-73
2022/09/28 02:36:55;;;;;;;13.87;4.10;;;9.20;99.90;;;8.27;100.00;95414.75;5031697;28;20414;-73
2022/09/28 02:39:21;;;;;;;19.20;4.88;;;9.20;99.90;;;8.26;100.00;95410.53;5031412;28;20411;-73
2022/09/28 02:41:59;;;;;;;14.10;3.90;;;9.20;99.90;;;8.23;100.00;95405.81;5031386;28;20498;-72
2022/09/28 02:44:44;;;;;;;14.82;3.80;;;9.30;99.90;;;8.32;100.00;95415.47;5029667;28;20419;-72
2022/09/28 02:47:24;;;;;;;21.40;3.95;;;9.30;99.90;;;8.27;100.00;95404.97;5031301;28;20450;-73
2022/09/28 02:50:02;;;;;;;11.63;3.47;;;9.30;99.90;;;8.33;100.00;95406.50;5031406;28;20406;-73
2022/09/28 02:52:49;;;;;;;10.95;3.17;;;9.30;99.90;;;8.42;100.00;95406.66;5031123;28;20399;-72
2022/09/28 02:55:31;;;;;;;17.93;3.80;;;9.40;99.90;;;8.32;100.00;95397.03;5030987;28;20441;-72
2022/09/28 02:58:24;;;;;;;13.93;3.60;;;9.30;99.90;;;8.32;100.00;95406.78;5031234;28;20893;-72
2022/09/28 03:01:01;;;;;;;20.25;4.18;;;9.40;99.90;;;8.35;100.00;95395.66;5031245;28;20893;-72
2022/09/28 03:03:36;;;;;;;18.83;3.42;;;9.30;99.90;;;8.33;100.00;95392.53;5030616;28;20398;-72
2022/09/28 03:06:08;;;;;;;18.95;4.47;;;9.30;99.90;;;8.32;100.00;95396.25;5031011;28;20419;-72
2022/09/28 03:08:41;;;;;;;14.67;3.50;;;9.40;99.90;;;8.35;100.00;95398.28;5030943;28;20399;-73
2022/09/28 03:11:15;;;;;;;12.87;3.57;;;9.40;99.90;;;8.33;100.00;95390.69;5031021;28;20429;-73
2022/09/28 03:13:41;;;;;;;11.03;3.93;;;9.30;99.90;;;8.31;100.00;95389.41;5030483;28;20446;-73
2022/09/28 03:16:12;;;;;;;12.00;3.50;;;9.30;99.90;;;8.41;100.00;95382.16;5030963;28;20411;-72
2022/09/28 03:18:39;;;;;;;14.57;3.78;;;9.40;99.90;;;8.35;100.00;95385.91;5030762;28;20453;-73
2022/09/28 03:21:06;;;;;;;12.52;3.30;;;9.40;99.90;;;8.51;100.00;95381.19;5030922;28;20411;-72
2022/09/28 03:23:32;;;;;;;15.55;4.10;;;9.50;99.90;;;8.38;100.00;95377.44;5087896;22;20971;-74
2022/09/28 03:25:59;;;;;;;18.65;4.15;;;9.40;99.90;;;8.34;100.00;95376.44;5088972;28;20985;-75
2022/09/28 03:28:25;;;;;;;12.45;3.40;;;9.30;99.90;;;8.36;100.00;95376.13;5090288;28;20398;-76
2022/09/28 03:30:51;;;;;;;15.98;3.70;;;9.40;99.90;;;8.31;100.00;95377.00;5090812;28;20402;-74
2022/09/28 03:33:18;;;;;;;12.40;3.45;;;9.30;99.90;;;8.28;100.00;95376.75;5090269;28;20405;-75
2022/09/28 03:35:46;;;;;;;14.75;3.45;;;9.30;99.90;;;8.33;100.00;95377.50;5090681;28;20395;-74
2022/09/28 03:38:12;;;;;;;12.73;3.47;;;9.30;99.90;;;8.27;100.00;95385.75;5090667;28;20398;-75
2022/09/28 03:40:38;;;;;;;16.38;4.18;;;9.30;99.90;;;8.31;100.00;95384.13;5090632;28;20467;-75
2022/09/28 03:43:04;;;;;;;13.05;3.30;;;9.30;99.90;;;8.36;100.00;95384.84;5089996;28;20848;-75
2022/09/28 03:45:30;;;;;;;13.27;3.63;;;9.40;99.90;;;8.30;100.00;95391.22;5090591;28;20414;-76
2022/09/28 03:47:56;;;;;;;9.93;3.63;;;9.30;99.90;;;8.29;100.00;95396.78;5090642;28;20412;-76
2022/09/28 03:50:23;;;;;;;13.98;3.80;;;9.30;99.90;;;8.29;100.00;95388.88;5081943;28;20938;-75
2022/09/28 03:52:49;;;;;;;20.52;3.85;;;9.30;99.90;;;8.24;100.00;95392.38;5081190;28;20406;-76
2022/09/28 03:55:15;;;;;;;15.90;4.13;;;9.30;99.90;;;8.23;100.00;95387.38;5082156;28;20450;-75
2022/09/28 03:57:41;;;;;;;15.55;4.32;;;9.30;99.90;;;8.22;100.00;95398.97;5081023;28;20930;-75
2022/09/28 04:00:09;;;;;;;17.80;4.07;;;9.30;99.90;;;8.22;100.00;95399.75;5088354;28;20429;-75
2022/09/28 04:02:35;;;;;;;17.60;4.30;;;9.20;99.90;;;8.24;100.00;95402.13;5087566;28;20496;-75
2022/09/28 04:05:01;;;;;;;19.08;4.22;;;9.20;99.90;;;8.23;100.00;95411.88;5089870;28;20971;-75
2022/09/28 04:07:28;;;;;;;20.67;5.35;;;9.20;99.90;;;8.24;100.00;95415.28;5102796;27;20967;-76
2022/09/28 04:09:54;;;;;;;21.10;4.03;;;9.30;99.90;;;8.24;100.00;95413.44;5084042;28;20467;-76
2022/09/28 04:12:20;;;;;;;12.18;3.80;;;9.30;99.90;;;8.29;100.00;95412.59;5083647;28;20897;-76
2022/09/28 04:14:46;;;;;;;10.23;3.20;;;9.30;99.90;;;8.23;100.00;95413.72;5082499;28;20402;-77
2022/09/28 04:17:11;;;;;;;9.03;3.10;;;9.30;99.90;;;8.18;100.00;95406.69;5084854;28;20455;-77
2022/09/28 04:19:38;;;;;;;11.25;2.80;;;9.20;99.90;;;8.19;100.00;95413.53;5085826;28;20402;-73
2022/09/28 04:22:04;;;;;;;10.02;3.30;;;9.20;99.90;;;8.11;100.00;95417.56;5092991;28;20471;-78
2022/09/28 04:24:31;;;;;;;7.72;2.67;;;9.20;99.90;;;8.08;100.00;95412.84;5093697;28;20883;-77
2022/09/28 04:29:14;;;;;;;6.82;3.00;;;9.10;99.90;;;8.03;100.00;95404.25;5081032;28;20417;-77
2022/09/28 04:29:44;;;;;;;9.98;3.05;;;9.10;99.90;;;8.01;100.00;95412.44;5093579;28;20398;-76
2022/09/28 04:32:13;;;;;;;10.17;3.20;;;9.10;99.90;;;7.98;100.00;95406.91;5093886;28;20442;-76
2022/09/28 04:34:39;;;;;;;7.50;2.60;;;9.10;99.90;;;8.02;100.00;95405.31;5093405;28;20436;-78
2022/09/28 04:37:05;;;;;;;9.60;3.13;;;9.00;99.90;;;8.01;100.00;95409.78;5094088;28;20455;-77
2022/09/28 04:39:33;;;;;;;7.85;2.30;;;9.00;99.90;;;7.93;100.00;95415.69;5092672;28;20402;-77
2022/09/28 04:41:59;;;;;;;13.17;2.93;;;9.00;99.90;;;7.91;100.00;95411.75;5093881;28;20470;-77
2022/09/28 04:44:24;;;;;;;9.77;3.00;;;9.00;99.90;;;7.89;100.00;95412.06;5093446;28;20409;-77
2022/09/28 04:46:50;;;;;;;6.93;2.65;;;9.00;99.90;;;7.89;100.00;95419.16;5090355;28;20510;-77
2022/09/28 04:49:16;;;;;;;13.03;3.00;;;8.90;99.90;;;7.88;100.00;95423.66;5084640;28;20496;-73
2022/09/28 04:51:42;;;;;;;11.15;3.00;;;9.00;99.90;;;7.88;100.00;95434.19;5098673;28;20400;-73
2022/09/28 04:54:08;;;;;;;8.60;3.10;;;9.00;99.90;;;7.87;100.00;95418.66;5081370;28;20437;-73
2022/09/28 04:56:35;;;;;;;11.07;2.97;;;8.90;99.90;;;7.85;100.00;95421.56;5084083;28;20510;-73
2022/09/28 04:59:01;;;;;;;8.93;2.83;;;8.90;99.90;;;7.85;100.00;95421.56;5082767;28;20396;-73
2022/09/28 05:01:28;;;;;;;7.75;2.78;;;8.90;99.90;;;7.83;100.00;95415.78;5082162;28;20398;-73
2022/09/28 05:03:55;;;;;;;10.15;3.33;;;8.90;99.90;;;7.78;100.00;95421.13;5084109;28;20405;-73
2022/09/28 05:06:21;;;;;;;14.55;3.28;;;8.80;99.90;;;7.77;100.00;95411.66;5093194;28;20534;-76
2022/09/28 05:08:47;;;;;;;13.65;3.25;;;8.80;99.90;;;7.78;100.00;95418.50;5093536;28;20455;-78
2022/09/28 05:11:13;;;;;;;11.75;3.33;;;8.90;99.90;;;7.76;100.00;95425.88;5093588;28;20402;-78
2022/09/28 05:13:44;;;;;;;11.30;3.40;;;8.80;99.90;;;7.75;100.00;95414.56;5092781;28;20413;-76
2022/09/28 05:16:11;;;;;;;10.27;3.00;;;8.80;99.90;;;7.77;100.00;95420.34;5108651;28;20911;-77
2022/09/28 05:18:38;;;;;;;15.52;3.20;;;8.80;99.90;;;7.76;100.00;95416.13;5091392;28;20462;-77
2022/09/28 05:21:08;;;;;;;9.15;3.00;;;8.80;99.90;;;7.77;100.00;95419.56;5090868;28;20410;-77
2022/09/28 05:23:34;;;;;;;9.55;3.20;;;8.80;99.90;;;7.76;100.00;95431.16;5092420;28;20414;-77
2022/09/28 05:26:00;;;;;;;12.82;3.63;;;8.80;99.90;;;7.75;100.00;95429.56;5093089;28;20428;-76
2022/09/28 05:28:29;;;;;;;8.02;2.90;;;8.80;99.90;;;7.78;100.00;95427.19;5093102;28;20394;-77
2022/09/28 05:30:59;;;;;;;13.40;3.30;;;8.80;99.90;;;7.74;100.00;95430.66;5092495;28;20655;-77
2022/09/28 05:33:26;;;;;;;12.07;3.40;;;8.80;99.90;;;7.72;100.00;95420.41;5091269;28;20797;-78
2022/09/28 05:35:52;;;;;;;6.20;2.85;;;8.80;99.90;;;7.68;100.00;95424.66;5092235;28;20402;-76
2022/09/28 05:38:17;;;;;;;9.32;3.13;;;8.70;99.90;;;7.63;100.00;95416.03;5092781;28;20435;-76
2022/09/28 05:40:43;;;;;;;7.63;3.25;;;8.70;99.90;;;7.62;100.00;95423.16;5092851;28;20887;-76
2022/09/28 05:43:09;;;;;;;13.48;3.80;;;8.70;99.90;;;7.61;100.00;95432.09;5092281;28;20485;-76
2022/09/28 05:45:35;;;;;;;12.63;3.80;;;8.70;99.90;;;7.63;100.00;95439.72;5092735;28;20497;-76
2022/09/28 05:48:03;;;;;;;14.70;3.90;;;8.70;99.90;;;7.66;100.00;95439.19;5092600;28;20409;-76
2022/09/28 05:50:28;;;;;;;17.75;4.63;;;8.70;99.90;;;7.64;100.00;95436.81;5081573;28;20410;-79
2022/09/28 05:53:00;;;;;;;11.82;3.50;;;8.70;99.90;;;7.65;100.00;95441.03;5074183;28;20896;-79
2022/09/28 05:55:26;;;;;;;12.45;3.63;;;8.70;99.90;;;7.68;100.00;95448.34;5072163;28;20831;-79
2022/09/28 05:57:52;;;;;;;17.08;5.05;;;8.70;99.90;;;7.72;100.00;95443.31;5074903;28;20404;-78
2022/09/28 06:00:18;;;;;;;15.07;4.60;;;8.80;99.90;;;7.71;100.00;95444.38;5103054;28;20414;-78
2022/09/28 06:02:56;;;;;;;18.17;4.78;;;8.80;99.90;;;7.70;100.00;95448.88;5092989;28;20409;-76
2022/09/28 06:05:24;;;;;;;15.98;5.00;;;8.80;99.90;;;7.71;100.00;95441.75;5092339;28;20429;-77
2022/09/28 06:07:50;;;;;;;12.70;3.97;;;8.80;99.90;;;7.73;100.00;95450.94;5092188;28;20932;-77
2022/09/28 06:10:16;;;;;;;10.52;4.15;;;8.80;99.90;;;7.76;100.00;95444.31;5092251;28;20402;-76
2022/09/28 06:12:42;;;;;;;14.07;4.70;;;8.80;99.90;;;7.76;100.00;95447.75;5090413;28;20425;-77
2022/09/28 06:15:09;;;;;;;15.13;5.10;;;8.80;99.90;;;7.76;100.00;95444.31;5091996;28;20409;-76
2022/09/28 06:17:35;;;;;;;20.70;5.60;;;8.80;99.90;;;7.78;100.00;95442.19;5106558;28;20393;-79
2022/09/28 06:20:01;;;;;;;13.95;4.63;;;8.90;99.90;;;7.81;100.00;95451.41;5094835;28;20914;-80
2022/09/28 06:22:28;;;;;;;17.13;5.07;;;8.90;99.90;;;7.81;100.00;95454.81;5091619;28;20413;-80
2022/09/28 06:24:54;;;;;;;15.40;4.93;;;8.90;99.90;;;7.83;100.00;95460.56;5091687;28;20409;-81
2022/09/28 06:27:20;;;;;;;18.85;5.55;;;8.90;99.90;;;7.83;100.00;95455.31;5091797;28;20441;-76
2022/09/28 06:29:45;;;;;;;15.40;5.10;;;8.90;99.90;;;7.84;100.00;95456.88;5091694;28;20556;-76
2022/09/28 06:32:12;;;;;;;16.53;5.80;;;8.90;99.90;;;7.86;100.00;95465.28;5091359;28;20831;-76
2022/09/28 06:34:40;;;;;;;25.75;6.45;;;8.90;99.90;;;7.87;100.00;95466.06;5091933;28;20398;-76
2022/09/28 06:37:06;;;;;;;17.83;6.05;;;8.90;99.90;;;7.88;100.00;95465.00;5088403;28;20423;-76
2022/09/28 06:39:33;;;;;;;18.10;5.63;;;8.90;99.90;;;7.90;100.00;95471.56;5091382;28;20489;-79
2022/09/28 06:42:02;;;;;;;18.42;5.70;;;8.90;99.90;;;7.97;100.00;95477.25;5079926;28;20418;-79
2022/09/28 06:44:28;;;;;;;24.80;6.75;;;9.00;99.90;;;8.00;100.00;95474.09;5070978;28;20438;-79
2022/09/28 06:46:54;;;;;;;21.38;6.15;;;9.00;99.90;;;8.01;100.00;95478.28;5071449;28;20411;-79
2022/09/28 06:49:21;;;;;;;21.35;6.25;;;9.10;99.90;;;8.04;100.00;95479.59;5071396;28;20396;-80
2022/09/28 06:51:47;;;;;;;23.15;6.55;;;9.10;99.90;;;8.04;100.00;95480.34;5071035;28;20396;-80
2022/09/28 06:54:13;;;;;;;23.67;6.97;;;9.10;99.90;;;8.04;100.00;95487.50;5086484;28;20396;-80
2022/09/28 06:56:41;;;;;;;20.13;6.65;;;9.10;99.90;;;8.08;100.00;95493.75;5071291;28;20464;-82
2022/09/28 06:59:06;;;;;;;26.08;6.70;;;9.10;99.90;;;8.02;100.00;95500.94;5071349;28;20474;-77
2022/09/28 07:01:32;;;;;;;26.98;7.85;;;9.10;99.90;;;8.07;100.00;95500.09;5069701;28;20915;-82
2022/09/28 07:04:00;;;;;;;27.80;7.73;;;9.10;99.90;;;8.02;100.00;95503.56;5070095;28;20395;-78
2022/09/28 07:06:27;;;;;;;27.58;7.10;;;9.10;99.90;;;8.00;100.00;95516.25;5070780;28;20522;-76
2022/09/28 07:08:53;;;;;;;28.67;7.30;;;9.00;99.90;;;8.07;100.00;95516.69;5070789;28;20403;-76
2022/09/28 07:11:20;;;;;;;28.63;7.23;;;9.10;99.90;;;8.04;100.00;95511.97;5070599;28;20399;-75
2022/09/28 07:13:47;;;;;;;23.53;7.20;;;9.10;99.90;;;8.07;100.00;95527.22;5075392;28;20918;-77
2022/09/28 07:16:13;;;;;;;25.10;7.72;;;9.10;99.90;;;8.05;100.00;95518.81;5070532;28;20482;-78
2022/09/28 07:18:39;;;;;;;23.87;7.47;;;9.10;99.90;;;8.08;100.00;95533.28;5070548;28;20793;-77
2022/09/28 07:21:06;;;;;;;25.52;7.53;;;9.10;99.90;;;8.11;100.00;95536.16;5070688;28;20392;-80
2022/09/28 07:23:32;;;;;;;24.20;7.33;;;9.10;99.90;;;8.13;100.00;95523.47;5069902;28;20410;-76
2022/09/28 07:26:03;;;;;;;24.67;7.10;;;9.20;99.90;;;8.22;100.00;95526.28;5071037;28;20427;-83
2022/09/28 07:28:30;;;;;;;28.70;7.38;;;9.20;99.90;;;8.20;100.00;95532.88;5070612;28;20484;-82
2022/09/28 07:30:57;;;;;;;26.42;7.13;;;9.20;99.90;;;8.23;100.00;95537.59;5069362;28;21064;-78
2022/09/28 07:33:29;;;;;;;18.80;6.40;;;9.20;99.90;;;8.25;100.00;95546.81;5069946;28;20407;-79
2022/09/28 07:35:55;;;;;;;18.83;6.10;;;9.30;99.90;;;8.31;100.00;95548.34;5069750;28;20483;-79
2022/09/28 07:38:21;;;;;;;18.27;6.93;;;9.30;99.90;;;8.32;100.00;95552.56;5070489;28;20431;-77
2022/09/28 07:43:32;;;;;;;21.33;6.93;;;9.30;99.90;;;8.30;100.00;95567.03;5069232;28;20399;-79
2022/09/28 07:45:59;;;;;;;17.42;6.60;;;9.30;99.90;;;8.31;100.00;95563.38;5070344;28;20934;-75
2022/09/28 07:48:25;;;;;;;23.13;7.40;;;9.30;99.90;;;8.35;100.00;95569.63;5075259;28;20428;-78
2022/09/28 07:50:53;;;;;;;17.33;6.82;;;9.40;99.90;;;8.37;100.00;95565.66;5078184;28;20483;-75
2022/09/28 07:53:22;;;;;;;21.63;6.97;;;9.40;99.90;;;8.40;100.00;95566.97;5069715;28;20400;-77
2022/09/28 07:55:51;;;;;;;20.83;7.00;;;9.40;99.90;;;8.45;100.00;95566.91;5070321;28;20395;-77
2022/09/28 07:58:18;;;;;;;20.08;6.13;;;9.50;99.90;;;8.49;100.00;95573.94;5071734;28;20404;-77
2022/09/28 08:00:46;;;;;;;24.55;6.85;;;9.50;99.90;;;8.52;100.00;95568.13;5071000;28;20473;-77
2022/09/28 08:03:14;;;;;;;19.98;6.20;;;9.50;99.90;;;8.60;100.00;95572.00;5069696;28;20407;-77
2022/09/28 08:05:41;;;;;;;18.42;6.05;;;9.60;99.90;;;8.71;100.00;95583.22;5070110;28;20414;-80
2022/09/28 08:08:08;;;;;;;22.08;6.75;;;9.70;99.90;;;8.72;100.00;95582.91;5070181;28;20395;-80
2022/09/28 08:10:34;;;;;;;26.35;7.00;;;9.70;99.90;;;8.72;100.00;95588.19;5070251;28;20407;-75
2022/09/28 08:13:01;;;;;;;16.85;5.85;;;9.70;99.90;;;8.80;100.00;95592.03;5069652;28;20408;-75
2022/09/28 08:15:28;;;;;;;17.48;5.85;;;9.70;99.90;;;8.79;100.00;95601.06;5070367;28;20496;-82
2022/09/28 08:17:54;;;;;;;16.90;5.95;;;9.80;99.90;;;8.83;100.00;95600.19;5069685;28;20408;-82
2022/09/28 08:23:08;;;;;;;17.95;5.50;;;9.80;99.90;;;8.93;100.00;95602.72;5069216;28;20435;-76
2022/09/28 08:25:37;;;;;;;17.17;5.80;;;9.90;99.90;;;9.02;100.00;95610.00;5069977;28;20399;-78
2022/09/28 08:28:07;;;;;;;15.88;5.43;;;9.90;99.90;;;9.08;100.00;95606.22;5069862;28;20399;-81
2022/09/28 08:30:33;;;;;;;12.95;4.97;;;10.00;99.90;;;9.04;100.00;95606.00;5079037;28;20401;-79
2022/09/28 08:32:59;;;;;;;15.17;5.47;;;10.00;99.90;;;9.08;100.00;95603.59;5087666;28;20501;-80
2022/09/28 08:35:26;;;;;;;14.57;4.95;;;10.00;99.90;;;9.02;100.00;95613.41;5088394;28;20421;-77
2022/09/28 08:37:53;;;;;;;12.82;5.03;;;10.00;99.90;;;9.04;100.00;95613.91;5089673;28;20394;-78
2022/09/28 08:40:23;;;;;;;13.87;5.37;;;10.00;99.90;;;9.13;100.00;95608.78;5072892;28;20400;-78
2022/09/28 08:42:52;;;;;;;12.60;4.82;;;10.10;99.90;;;9.21;100.00;95611.56;5069244;28;20465;-80
2022/09/28 08:45:24;;;;;;;12.55;4.40;;;10.20;99.90;;;9.27;100.00;95613.06;5087062;28;20402;-77
2022/09/28 08:50:48;;;;;;;15.18;4.53;;;10.20;99.90;;;9.21;100.00;95619.50;5087884;28;20426;-76
2022/09/28 08:53:37;;;;;;;18.35;4.88;;;10.20;99.90;;;9.23;100.00;95620.00;5089150;28;20414;-84
2022/09/28 08:56:11;;;;;;;13.35;4.45;;;10.10;99.90;;;9.19;100.00;95632.19;5093493;28;20827;-77
2022/09/28 08:58:42;;;;;;;14.63;5.05;;;10.10;99.90;;;9.11;100.00;95632.03;5083919;28;20409;-78
2022/09/28 09:01:15;;;;;;;15.88;4.70;;;10.10;99.90;;;9.11;100.00;95635.44;5087726;28;20407;-81
2022/09/28 09:03:44;;;;;;;13.85;4.80;;;10.10;99.90;;;9.13;100.00;95630.69;5096182;28;20481;-80
2022/09/28 09:06:26;;;;;;;10.02;4.38;;;10.10;99.90;;;9.35;100.00;95638.03;5089227;28;20425;-78
2022/09/28 09:09:03;;;;;;;13.52;4.95;;;10.20;99.90;;;9.34;100.00;95639.09;5086583;28;20489;-80
2022/09/28 09:11:48;;;;;;;16.52;5.38;;;10.30;99.90;;;9.43;100.00;95647.97;5073069;28;20526;-80
2022/09/28 09:14:37;;;;;;;13.00;4.38;;;10.30;99.90;;;9.55;100.00;95647.53;5075075;28;20422;-77
2022/09/28 09:17:17;;;;;;;14.55;4.78;;;10.50;99.90;;;9.64;100.00;95648.44;5088857;28;20409;-78
2022/09/28 09:19:53;;;;;;;12.13;4.37;;;10.60;99.90;;;9.75;100.00;95652.53;5091503;28;20394;-77
2022/09/28 09:22:37;;;;;;;14.13;4.25;;;10.60;99.90;;;9.61;100.00;95660.41;5091552;28;20402;-78
2022/09/28 09:25:20;;;;;;;24.45;5.00;;;10.60;99.90;;;9.53;100.00;95655.75;5092164;28;20398;-78
2022/09/28 09:28:06;;;;;;;12.75;4.28;;;10.50;99.90;;;9.63;100.00;95666.16;5083530;28;20406;-77
2022/09/28 09:30:45;;;;;;;17.65;5.63;;;10.50;99.90;;;9.65;100.00;95671.94;5080173;28;20773;-77
2022/09/28 09:34:03;;;;;;;17.00;5.30;;;10.60;99.90;;;9.71;100.00;95667.38;5077091;28;20408;-77
2022/09/28 09:36:46;;;;;;;14.75;5.10;;;10.60;99.90;;;9.52;100.00;95663.97;5061056;28;20854;-77
2022/09/28 09:39:33;;;;;;;14.85;5.60;;;10.50;99.90;;;9.52;100.00;95675.31;5081901;28;20403;-77
2022/09/28 09:42:22;;;;;;;12.63;5.10;;;10.50;99.90;;;9.49;100.00;95675.88;5082884;28;20487;-78
2022/09/28 09:45:22;;;;;;;19.77;6.22;;;10.50;99.90;;;9.58;100.00;95684.72;5081641;28;20454;-78
2022/09/28 09:47:53;;;;;;;14.52;5.53;;;10.50;99.90;;;9.64;100.00;95688.06;5081384;28;20464;-75
2022/09/28 09:50:28;;;;;;;16.92;6.00;;;10.50;99.90;;;9.61;100.00;95688.66;5076219;28;20390;-78
2022/09/28 09:53:02;;;;;;;17.48;5.45;;;10.60;99.90;;;9.61;100.00;95684.16;5074356;28;20391;-78
2022/09/28 09:55:39;;;;;;;16.80;5.53;;;10.50;99.90;;;9.62;100.00;95692.88;5072114;28;20519;-79
2022/09/28 09:58:13;;;;;;;14.38;4.93;;;10.50;99.90;;;9.65;100.00;95694.94;5072185;28;20430;-79
2022/09/28 10:00:42;;;;;;;14.35;5.80;;;10.60;99.90;;;9.64;100.00;95693.34;5071562;28;20403;-75
2022/09/28 10:03:21;;;;;;;14.95;6.05;;;10.60;99.90;;;9.61;100.00;95686.03;5071357;28;20406;-76
2022/09/28 10:05:55;;;;;;;22.63;5.72;;;10.50;99.90;;;9.72;100.00;95692.72;5070799;28;20417;-77
2022/09/28 10:08:23;;;;;;;13.23;5.20;;;10.60;99.90;;;9.65;100.00;95687.00;5074367;28;20397;-76
2022/09/28 10:11:01;;;;;;;13.53;5.57;;;10.60;99.90;;;9.76;100.00;95696.38;5100593;22;20425;-71
2022/09/28 10:13:28;;;;;;;23.13;6.38;;;10.70;99.90;;;9.70;100.00;95695.63;5087120;28;20390;-70
2022/09/28 10:15:54;;;;;;;17.13;5.65;;;10.70;99.90;;;9.56;100.00;95694.00;5085455;28;21051;-72
2022/09/28 10:18:20;;;;;;;17.83;5.38;;;10.50;99.90;;;9.54;100.00;95686.38;5088689;28;20971;-72
2022/09/28 10:20:47;;;;;;;14.57;5.47;;;10.40;99.90;;;9.57;100.00;95682.38;5081144;28;20445;-72
2022/09/28 10:23:21;;;;;;;18.17;5.78;;;10.50;99.90;;;9.60;100.00;95687.09;5073333;28;20400;-74
2022/09/28 10:25:53;;;;;;;17.55;5.78;;;10.50;99.90;;;9.75;100.00;95684.22;5068002;28;20757;-74
2022/09/28 10:28:32;;;;;;;16.10;5.47;;;10.70;99.90;;;9.64;100.00;95678.28;5070831;28;20411;-74
2022/09/28 10:30:58;;;;;;;14.30;5.73;;;10.60;99.90;;;9.66;100.00;95681.44;5071654;28;20940;-74
2022/09/28 10:33:30;;;;;;;12.77;5.20;;;10.60;99.90;;;9.73;100.00;95683.72;5070780;28;20483;-74
2022/09/28 10:35:58;;;;;;;11.93;5.57;;;10.70;99.90;;;9.85;100.00;95681.41;5071500;28;20415;-73
2022/09/28 10:38:24;;;;;;;12.50;4.77;;;10.70;99.90;;;9.78;100.00;95682.84;5071447;28;20487;-73
2022/09/28 10:40:55;;;;;;;10.63;4.65;;;10.70;99.90;;;9.90;100.00;95684.00;5071502;28;20404;-73
2022/09/28 10:43:25;;;;;;;14.35;4.82;;;10.80;99.90;;;9.97;100.00;95686.28;5069775;28;20982;-73
2022/09/28 10:46:05;;;;;;;10.23;4.00;;;10.80;99.90;;;10.03;100.00;95695.69;5071227;28;20861;-74